Хлебниково

Карта отелей и гостиниц, располагающихся рядом с аэропортом Хлебниково :

Хлебниково Марий Эл 56° 39' 9.9" N, 49° 57' 7.8012" E
Код аэродрома ИКАО
ZA5A
Код аэродрома RU
ЗА5А
Координаты
N56.65275° E049.95217°
Превышение над уровнем моря
145
Основная полоса
11/29
Курс магнитный
108/288
Длина основной ВПП
445
Ширина основной ВПП
18
Покрытие основной ВПП
Твёрдое (асфальт)
Освещение ВПП
Нет
Тип: 
Аэродром
Класс аэродрома: 
Принадлежность: 
ГА
Статус: 
Недействующий
Сайт: 
E-mail аэродрома: 
Страна: 
Россия
Регион: 
Марий Эл
Город: 
Дополнительная информация: 
Площадка АХР.

Найти трансфер

С помощью этой формы Вы можете найти трансфер из аэропорта Хлебниково в город, аэропорт или вокзал:

Карта места

Javascript is required to view this map.

Погода в аэропортах:

Авиационная погода в Уфе

Регион: 
Погода METAR: 
UWUU 170900Z 20008MPS 3000 -SN DRSN OVC014 M12/M14 Q1005 R14R/420548 TEMPO 0300 +SN BLSN VV003
Время наблюдения
2021-01-17T09:00:00Z
Температура C
-12.0
Точка росы
-14.0
Направление ветра
200
Скорость ветра (узлы)
16
Метео видимость
1.86
Явления погоды
-SN DRSN
Условия полета
IFR
Аэропорт подробнее: 

Авиационная погода в Атырау

Регион: 
Погода METAR: 
UATG 170900Z 05003MPS 5000 BR OVC005 M03/M03 Q1014 R14/19//62 NOSIG RMK QBB150 QFE762/1016
Время наблюдения
2021-01-17T09:00:00Z
Температура C
-3.0
Точка росы
-3.0
Направление ветра
50
Скорость ветра (узлы)
6
Метео видимость
3.11
Явления погоды
BR
Условия полета
IFR

Авиационная погода в Миккели

Регион: 
Погода METAR: 
EFMI 301050Z AUTO 11005KT 9999 -SHRASN OVC005 00/M01 Q1019
Время наблюдения
2020-11-30T10:50:00Z
Температура C
0.0
Точка росы
-1.0
Направление ветра
110
Скорость ветра (узлы)
5
Метео видимость
6.21
Явления погоды
-SHRA -SHSN
Условия полета
IFR

Авиационная погода в Пскове

Регион: 
Погода METAR: 
ULOO 170900Z VRB01MPS 5000 -SN OVC014 M15/M17 Q1019 R01/490139 NOSIG RMK QFE760
Время наблюдения
2021-01-17T09:00:00Z
Температура C
-15.0
Точка росы
-17.0
Направление ветра
0
Скорость ветра (узлы)
2
Метео видимость
3.11
Явления погоды
-SN
Условия полета
MVFR